Egmondgracht — PDWG — position and weather

sailwx.info

Track history (hours):
 
Tides and Currents Weather Stations Pressure Air Temp Water Temp Dewpoint Dewpoint Depression Visibility Wind Speed Wind Dir Waves Ship Positions

Egmondgracht

Last reported at 2014-Oct-09 08:30 UTC. Time now 2014-Oct-21 16:57 UTC.
Position N 55°31' E 015°31'.
Warning: this ship's position is 12 days out of date.

Length 136 m; beam 19 m; draft 9 m.

Type: Cargo ship. MMSI: 245716000.

Date/timePositionNaut miles runAvg speedWind from/ knotsBaromVisibWave heightAir tempDewpointWater temp
2014-Oct-09 08:30N 55°31' E 015°31'1011.1
2014-Oct-09 07:33N 55°28' E 015°13'1111.1
2014-Oct-09 06:33N 55°26' E 014°54'1110.6
2014-Oct-09 05:33N 55°22' E 014°36'1111.4
2014-Oct-09 04:34N 55°13' E 014°24'1111.4
2014-Oct-09 03:34N 55°04' E 014°12'6312.3
2014-Oct-08 22:28N 54°40' E 012°31'1112.4
2014-Oct-08 21:33N 54°33' E 012°16'1110.9
2014-Oct-08 20:33N 54°25' E 012°03'1312.6
2014-Oct-08 19:34N 54°26' E 011°42'1212.1
2014-Oct-08 18:33N 54°31' E 011°23'1111.4
2014-Oct-08 17:33N 54°35' E 011°04'1111.2
2014-Oct-08 16:34N 54°34' E 010°45'1111.2
2014-Oct-08 15:33N 54°32' E 010°26'1110.7
2014-Oct-08 14:33N 54°25' E 010°12'4 3.6
2014-Oct-08 13:33N 54°22' E 010°08'7 7.0
2014-Oct-08 12:33N 54°20' E 009°56'7 6.9
2014-Oct-08 11:33N 54°20' E 009°45'6 5.6
2014-Oct-08 10:33N 54°16' E 009°38'7 6.3
2014-Oct-08 09:31N 54°11' E 009°31'10 7.6
2014-Oct-08 08:12N 54°04' E 009°19'5 8.4
2014-Oct-08 07:33N 53°59' E 009°17'7 7.2
2014-Oct-08 06:33N 53°54' E 009°09'3 3.3
2014-Oct-08 05:33N 53°52' E 009°04'9 9.3
2014-Oct-08 04:33N 53°50' E 008°48'9 8.8
2014-Oct-08 03:33N 53°57' E 008°38'1110.9
2014-Oct-08 02:33N 53°59' E 008°20'1211.8
2014-Oct-08 01:34N 53°58' E 008°00'1111.5
2014-Oct-08 00:34N 53°55' E 007°41'3812.6
2014-Oct-07 21:33N 53°46' E 006°39'1212.0
2014-Oct-07 20:30N 53°40' E 006°21'9 9.7
2014-Oct-07 19:33N 53°36' E 006°36'1010.0
2014-Oct-07 18:33N 53°30' E 006°49'3 2.5
2014-Oct-07 17:32N 53°27' E 006°49'0 0.0
2014-Oct-07 16:32N 53°27' E 006°49'0 0.0
2014-Oct-07 15:32N 53°27' E 006°49'0 0.0
2014-Oct-07 14:32N 53°27' E 006°49'0 0.0
2014-Oct-07 13:32N 53°27' E 006°49'0 0.0
2014-Oct-07 12:32N 53°27' E 006°49'0 0.0
2014-Oct-07 11:32N 53°27' E 006°49'0 0.0
2014-Oct-07 10:31N 53°27' E 006°49'0 0.0
2014-Oct-07 09:31N 53°27' E 006°49'0 0.0
2014-Oct-07 08:31N 53°27' E 006°49'0 0.0
2014-Oct-07 07:31N 53°27' E 006°49'0 0.0
2014-Oct-07 06:31N 53°27' E 006°49'0 0.0
2014-Oct-07 05:31N 53°27' E 006°49'0 0.0
2014-Oct-07 04:31N 53°27' E 006°49'0 0.0
2014-Oct-07 03:31N 53°27' E 006°49'0 0.0
2014-Oct-07 02:31N 53°27' E 006°49'0 0.0
2014-Oct-07 01:31N 53°27' E 006°49'0 0.0
2014-Oct-07 00:31N 53°27' E 006°49'0 0.0
2014-Oct-06 23:31N 53°27' E 006°49'0 0.0
2014-Oct-06 22:31N 53°27' E 006°49'0 0.0
2014-Oct-06 21:31N 53°27' E 006°49'0 0.0
2014-Oct-06 20:31N 53°27' E 006°49'0 0.0
2014-Oct-06 19:31N 53°27' E 006°49'0 0.0
2014-Oct-06 18:31N 53°27' E 006°49'0 0.0
2014-Oct-06 17:31N 53°27' E 006°49'0 0.0
2014-Oct-06 16:31N 53°27' E 006°49'0 0.0
2014-Oct-06 15:31N 53°27' E 006°49'0 0.0
2014-Oct-06 14:31N 53°27' E 006°49'0 0.0
2014-Oct-06 13:31N 53°27' E 006°49'0 0.0
2014-Oct-06 12:31N 53°27' E 006°49'0 0.0
2014-Oct-06 11:31N 53°27' E 006°49'0 0.0
2014-Oct-06 10:31N 53°27' E 006°49'0 0.0
2014-Oct-06 09:31N 53°27' E 006°49'0 0.0
2014-Oct-06 08:31N 53°27' E 006°49'0 0.0
2014-Oct-06 07:31N 53°27' E 006°49'0 0.0
2014-Oct-06 06:31N 53°27' E 006°49'0 0.0
2014-Oct-06 05:31N 53°27' E 006°49'0 0.0
2014-Oct-06 04:31N 53°27' E 006°49'0 0.0
2014-Oct-06 03:31N 53°27' E 006°49'0 0.0
2014-Oct-06 02:28N 53°27' E 006°49'0 0.0
2014-Oct-06 01:31N 53°27' E 006°49'0 0.0
2014-Oct-06 00:31N 53°27' E 006°49'0 0.0
2014-Oct-05 23:34N 53°27' E 006°49'0 0.0
2014-Oct-05 22:33N 53°27' E 006°49'0 0.0
2014-Oct-05 21:33N 53°27' E 006°49'0 0.0
2014-Oct-05 20:33N 53°27' E 006°49'0 0.0
2014-Oct-05 19:33N 53°27' E 006°49'0 0.0
2014-Oct-05 18:33N 53°27' E 006°49'0 0.0
2014-Oct-05 17:33N 53°27' E 006°49'0 0.0
2014-Oct-05 16:33N 53°27' E 006°49'0 0.0
2014-Oct-05 15:33N 53°27' E 006°49'0 0.0
2014-Oct-05 14:33N 53°27' E 006°49'0 0.0
2014-Oct-05 13:33N 53°27' E 006°49'0 0.0
2014-Oct-05 12:33N 53°27' E 006°49'1 1.2
2014-Oct-05 11:33N 53°28' E 006°50'10 9.9
2014-Oct-05 10:33N 53°35' E 006°38'1110.5
2014-Oct-05 09:33N 53°37' E 006°20'1111.1
2014-Oct-05 08:33N 53°39' E 006°02'1111.3
2014-Oct-05 07:33N 53°36' E 005°43'1111.3
2014-Oct-05 06:33N 53°33' E 005°25'1010.0
2014-Oct-05 05:33N 53°30' E 005°09'9 9.2
2014-Oct-05 04:33N 53°27' E 004°54'9 9.4
2014-Oct-05 03:33N 53°22' E 004°41'1310.0
2014-Oct-05 02:15N 53°10' E 004°31'1010.9
2014-Oct-05 01:23N 53°02' E 004°23'1011.0
2014-Oct-05 00:28N 52°53' E 004°15'1111.4
2014-Oct-04 23:30N 52°44' E 004°05'1313.1
2014-Oct-04 22:29N 52°34' E 003°50'6612.1
2014-Oct-04 17:04N 51°46' E 002°37'611.1
2014-Oct-04 16:33N 51°42' E 002°31'1110.6
2014-Oct-04 15:33N 51°34' E 002°20'1110.9
2014-Oct-04 14:33N 51°25' E 002°09'1110.7
2014-Oct-04 13:33N 51°15' E 002°04'1211.2
2014-Oct-04 12:29N 51°07' E 001°49'1111.7
2014-Oct-04 11:33N 50°60' E 001°37'4011.6
2014-Oct-04 08:07N 50°29' E 000°56'1211.4
2014-Oct-04 07:06N 50°26' E 000°38'611.5
2014-Oct-04 06:33N 50°25' E 000°29'1611.9
2014-Oct-04 05:13N 50°20' E 000°05'3912.7
2014-Oct-04 02:07N 50°09' W 000°54'712.3
2014-Oct-04 01:33N 50°07' W 001°05'3410.6
2014-Oct-03 22:24N 49°58' W 001°55'  
2014-Oct-01 07:33N 39°20' W 009°52'1312.6
2014-Oct-01 06:34N 39°08' W 009°53'1311.8
2014-Oct-01 05:29N 38°55' W 009°52'1211.6
2014-Oct-01 04:26N 38°43' W 009°51'1112.5
2014-Oct-01 03:32N 38°32' W 009°48'1212.4
2014-Oct-01 02:33N 38°20' W 009°44'1312.8
2014-Oct-01 01:33N 38°08' W 009°41'1313.1
2014-Oct-01 00:33N 37°55' W 009°37'1312.7
2014-Sep-30 23:33N 37°43' W 009°32'1212.5
2014-Sep-30 22:34N 37°31' W 009°29'1312.8
2014-Sep-30 21:33N 37°18' W 009°26'1312.9
2014-Sep-30 20:33N 37°05' W 009°22'1212.5
2014-Sep-30 19:34N 36°53' W 009°18'1212.4
2014-Sep-30 18:33N 36°45' W 009°07'1412.8
2014-Sep-30 17:29N 36°40' W 008°51'1212.7
2014-Sep-30 16:34N 36°37' W 008°37'1312.7
2014-Sep-30 15:34N 36°33' W 008°22'3013.4
2014-Sep-30 13:17N 36°23' W 007°46'1013.9
2014-Sep-30 12:33N 36°20' W 007°34'  
Track history (hours):
 
Tides and Currents Weather Stations Pressure Air Temp Water Temp Dewpoint Dewpoint Depression Visibility Wind Speed Wind Dir Waves Ship Positions

Egmondgracht

Last reported at 2014-Oct-09 08:30 UTC. Time now 2014-Oct-21 16:57 UTC.
Position N 55°31' E 015°31'.
Warning: this ship's position is 12 days out of date.

Length 136 m; beam 19 m; draft 9 m.

Type: Cargo ship. MMSI: 245716000.

Date/timePositionNaut miles runAvg speedWind from/ knotsBaromVisibWave heightAir tempDewpointWater temp
2014-Oct-09 08:30N 55°31' E 015°31'1011.1
2014-Oct-09 07:33N 55°28' E 015°13'1111.1
2014-Oct-09 06:33N 55°26' E 014°54'1110.6
2014-Oct-09 05:33N 55°22' E 014°36'1111.4
2014-Oct-09 04:34N 55°13' E 014°24'1111.4
2014-Oct-09 03:34N 55°04' E 014°12'6312.3
2014-Oct-08 22:28N 54°40' E 012°31'1112.4
2014-Oct-08 21:33N 54°33' E 012°16'1110.9
2014-Oct-08 20:33N 54°25' E 012°03'1312.6
2014-Oct-08 19:34N 54°26' E 011°42'1212.1
2014-Oct-08 18:33N 54°31' E 011°23'1111.4
2014-Oct-08 17:33N 54°35' E 011°04'1111.2
2014-Oct-08 16:34N 54°34' E 010°45'1111.2
2014-Oct-08 15:33N 54°32' E 010°26'1110.7
2014-Oct-08 14:33N 54°25' E 010°12'4 3.6
2014-Oct-08 13:33N 54°22' E 010°08'7 7.0
2014-Oct-08 12:33N 54°20' E 009°56'7 6.9
2014-Oct-08 11:33N 54°20' E 009°45'6 5.6
2014-Oct-08 10:33N 54°16' E 009°38'7 6.3
2014-Oct-08 09:31N 54°11' E 009°31'10 7.6
2014-Oct-08 08:12N 54°04' E 009°19'5 8.4
2014-Oct-08 07:33N 53°59' E 009°17'7 7.2
2014-Oct-08 06:33N 53°54' E 009°09'3 3.3
2014-Oct-08 05:33N 53°52' E 009°04'9 9.3
2014-Oct-08 04:33N 53°50' E 008°48'9 8.8
2014-Oct-08 03:33N 53°57' E 008°38'1110.9
2014-Oct-08 02:33N 53°59' E 008°20'1211.8
2014-Oct-08 01:34N 53°58' E 008°00'1111.5
2014-Oct-08 00:34N 53°55' E 007°41'3812.6
2014-Oct-07 21:33N 53°46' E 006°39'1212.0
2014-Oct-07 20:30N 53°40' E 006°21'9 9.7
2014-Oct-07 19:33N 53°36' E 006°36'1010.0
2014-Oct-07 18:33N 53°30' E 006°49'3 2.5
2014-Oct-07 17:32N 53°27' E 006°49'0 0.0
2014-Oct-07 16:32N 53°27' E 006°49'0 0.0
2014-Oct-07 15:32N 53°27' E 006°49'0 0.0
2014-Oct-07 14:32N 53°27' E 006°49'0 0.0
2014-Oct-07 13:32N 53°27' E 006°49'0 0.0
2014-Oct-07 12:32N 53°27' E 006°49'0 0.0
2014-Oct-07 11:32N 53°27' E 006°49'0 0.0
2014-Oct-07 10:31N 53°27' E 006°49'0 0.0
2014-Oct-07 09:31N 53°27' E 006°49'0 0.0
2014-Oct-07 08:31N 53°27' E 006°49'0 0.0
2014-Oct-07 07:31N 53°27' E 006°49'0 0.0
2014-Oct-07 06:31N 53°27' E 006°49'0 0.0
2014-Oct-07 05:31N 53°27' E 006°49'0 0.0
2014-Oct-07 04:31N 53°27' E 006°49'0 0.0
2014-Oct-07 03:31N 53°27' E 006°49'0 0.0
2014-Oct-07 02:31N 53°27' E 006°49'0 0.0
2014-Oct-07 01:31N 53°27' E 006°49'0 0.0
2014-Oct-07 00:31N 53°27' E 006°49'0 0.0
2014-Oct-06 23:31N 53°27' E 006°49'0 0.0
2014-Oct-06 22:31N 53°27' E 006°49'0 0.0
2014-Oct-06 21:31N 53°27' E 006°49'0 0.0
2014-Oct-06 20:31N 53°27' E 006°49'0 0.0
2014-Oct-06 19:31N 53°27' E 006°49'0 0.0
2014-Oct-06 18:31N 53°27' E 006°49'0 0.0
2014-Oct-06 17:31N 53°27' E 006°49'0 0.0
2014-Oct-06 16:31N 53°27' E 006°49'0 0.0
2014-Oct-06 15:31N 53°27' E 006°49'0 0.0
2014-Oct-06 14:31N 53°27' E 006°49'0 0.0
2014-Oct-06 13:31N 53°27' E 006°49'0 0.0
2014-Oct-06 12:31N 53°27' E 006°49'0 0.0
2014-Oct-06 11:31N 53°27' E 006°49'0 0.0
2014-Oct-06 10:31N 53°27' E 006°49'0 0.0
2014-Oct-06 09:31N 53°27' E 006°49'0 0.0
2014-Oct-06 08:31N 53°27' E 006°49'0 0.0
2014-Oct-06 07:31N 53°27' E 006°49'0 0.0
2014-Oct-06 06:31N 53°27' E 006°49'0 0.0
2014-Oct-06 05:31N 53°27' E 006°49'0 0.0
2014-Oct-06 04:31N 53°27' E 006°49'0 0.0
2014-Oct-06 03:31N 53°27' E 006°49'0 0.0
2014-Oct-06 02:28N 53°27' E 006°49'0 0.0
2014-Oct-06 01:31N 53°27' E 006°49'0 0.0
2014-Oct-06 00:31N 53°27' E 006°49'0 0.0
2014-Oct-05 23:34N 53°27' E 006°49'0 0.0
2014-Oct-05 22:33N 53°27' E 006°49'0 0.0
2014-Oct-05 21:33N 53°27' E 006°49'0 0.0
2014-Oct-05 20:33N 53°27' E 006°49'0 0.0
2014-Oct-05 19:33N 53°27' E 006°49'0 0.0
2014-Oct-05 18:33N 53°27' E 006°49'0 0.0
2014-Oct-05 17:33N 53°27' E 006°49'0 0.0
2014-Oct-05 16:33N 53°27' E 006°49'0 0.0
2014-Oct-05 15:33N 53°27' E 006°49'0 0.0
2014-Oct-05 14:33N 53°27' E 006°49'0 0.0
2014-Oct-05 13:33N 53°27' E 006°49'0 0.0
2014-Oct-05 12:33N 53°27' E 006°49'1 1.2
2014-Oct-05 11:33N 53°28' E 006°50'10 9.9
2014-Oct-05 10:33N 53°35' E 006°38'1110.5
2014-Oct-05 09:33N 53°37' E 006°20'1111.1
2014-Oct-05 08:33N 53°39' E 006°02'1111.3
2014-Oct-05 07:33N 53°36' E 005°43'1111.3
2014-Oct-05 06:33N 53°33' E 005°25'1010.0
2014-Oct-05 05:33N 53°30' E 005°09'9 9.2
2014-Oct-05 04:33N 53°27' E 004°54'9 9.4
2014-Oct-05 03:33N 53°22' E 004°41'1310.0
2014-Oct-05 02:15N 53°10' E 004°31'1010.9
2014-Oct-05 01:23N 53°02' E 004°23'1011.0
2014-Oct-05 00:28N 52°53' E 004°15'1111.4
2014-Oct-04 23:30N 52°44' E 004°05'1313.1
2014-Oct-04 22:29N 52°34' E 003°50'6612.1
2014-Oct-04 17:04N 51°46' E 002°37'611.1
2014-Oct-04 16:33N 51°42' E 002°31'1110.6
2014-Oct-04 15:33N 51°34' E 002°20'1110.9
2014-Oct-04 14:33N 51°25' E 002°09'1110.7
2014-Oct-04 13:33N 51°15' E 002°04'1211.2
2014-Oct-04 12:29N 51°07' E 001°49'1111.7
2014-Oct-04 11:33N 50°60' E 001°37'4011.6
2014-Oct-04 08:07N 50°29' E 000°56'1211.4
2014-Oct-04 07:06N 50°26' E 000°38'611.5
2014-Oct-04 06:33N 50°25' E 000°29'1611.9
2014-Oct-04 05:13N 50°20' E 000°05'3912.7
2014-Oct-04 02:07N 50°09' W 000°54'712.3
2014-Oct-04 01:33N 50°07' W 001°05'3410.6
2014-Oct-03 22:24N 49°58' W 001°55'  
2014-Oct-01 07:33N 39°20' W 009°52'1312.6
2014-Oct-01 06:34N 39°08' W 009°53'1311.8
2014-Oct-01 05:29N 38°55' W 009°52'1211.6
2014-Oct-01 04:26N 38°43' W 009°51'1112.5
2014-Oct-01 03:32N 38°32' W 009°48'1212.4
2014-Oct-01 02:33N 38°20' W 009°44'1312.8
2014-Oct-01 01:33N 38°08' W 009°41'1313.1
2014-Oct-01 00:33N 37°55' W 009°37'1312.7
2014-Sep-30 23:33N 37°43' W 009°32'1212.5
2014-Sep-30 22:34N 37°31' W 009°29'1312.8
2014-Sep-30 21:33N 37°18' W 009°26'1312.9
2014-Sep-30 20:33N 37°05' W 009°22'1212.5
2014-Sep-30 19:34N 36°53' W 009°18'1212.4
2014-Sep-30 18:33N 36°45' W 009°07'1412.8
2014-Sep-30 17:29N 36°40' W 008°51'1212.7
2014-Sep-30 16:34N 36°37' W 008°37'1312.7
2014-Sep-30 15:34N 36°33' W 008°22'3013.4
2014-Sep-30 13:17N 36°23' W 007°46'1013.9
2014-Sep-30 12:33N 36°20' W 007°34'  

Dump ship's entire track history